sensor_id;sensor_type;location;lat;lon;timestamp;P1;durP1;ratioP1;P2;durP2;ratioP2
3589;SDS011;1809;48.470;9.226;2023-02-25T00:01:02;13.23;;;8.83;;
3589;SDS011;1809;48.470;9.226;2023-02-25T00:03:31;17.23;;;8.23;;
3589;SDS011;1809;48.470;9.226;2023-02-25T00:05:56;15.63;;;7.80;;
3589;SDS011;1809;48.470;9.226;2023-02-25T00:08:22;13.67;;;7.60;;
3589;SDS011;1809;48.470;9.226;2023-02-25T00:10:55;12.17;;;8.07;;
3589;SDS011;1809;48.470;9.226;2023-02-25T00:13:24;11.43;;;7.60;;
3589;SDS011;1809;48.470;9.226;2023-02-25T00:15:50;11.27;;;7.60;;
3589;SDS011;1809;48.470;9.226;2023-02-25T00:18:16;13.10;;;8.20;;
3589;SDS011;1809;48.470;9.226;2023-02-25T00:20:41;10.63;;;7.90;;
3589;SDS011;1809;48.470;9.226;2023-02-25T00:23:06;14.43;;;8.33;;
3589;SDS011;1809;48.470;9.226;2023-02-25T00:25:32;9.63;;;6.95;;
3589;SDS011;1809;48.470;9.226;2023-02-25T00:27:57;42.67;;;8.27;;
3589;SDS011;1809;48.470;9.226;2023-02-25T00:30:22;13.30;;;8.17;;
3589;SDS011;1809;48.470;9.226;2023-02-25T00:32:48;11.60;;;7.73;;
3589;SDS011;1809;48.470;9.226;2023-02-25T00:35:14;11.20;;;7.10;;
3589;SDS011;1809;48.470;9.226;2023-02-25T00:37:39;13.53;;;7.90;;
3589;SDS011;1809;48.470;9.226;2023-02-25T00:40:05;15.00;;;9.37;;
3589;SDS011;1809;48.470;9.226;2023-02-25T00:42:38;14.80;;;8.00;;
3589;SDS011;1809;48.470;9.226;2023-02-25T00:45:05;18.20;;;10.10;;
3589;SDS011;1809;48.470;9.226;2023-02-25T00:47:31;11.07;;;7.50;;
3589;SDS011;1809;48.470;9.226;2023-02-25T00:49:56;15.43;;;8.97;;
3589;SDS011;1809;48.470;9.226;2023-02-25T00:52:21;13.37;;;8.17;;
3589;SDS011;1809;48.470;9.226;2023-02-25T00:54:47;11.70;;;7.00;;
3589;SDS011;1809;48.470;9.226;2023-02-25T00:57:12;12.30;;;7.80;;
3589;SDS011;1809;48.470;9.226;2023-02-25T00:59:37;12.63;;;7.87;;
3589;SDS011;1809;48.470;9.226;2023-02-25T01:02:03;17.10;;;8.67;;
3589;SDS011;1809;48.470;9.226;2023-02-25T01:04:29;13.33;;;7.80;;
3589;SDS011;1809;48.470;9.226;2023-02-25T01:06:54;15.87;;;8.60;;
3589;SDS011;1809;48.470;9.226;2023-02-25T01:09:20;13.03;;;7.23;;
3589;SDS011;1809;48.470;9.226;2023-02-25T01:11:46;15.80;;;8.27;;
3589;SDS011;1809;48.470;9.226;2023-02-25T01:14:16;13.90;;;9.10;;
3589;SDS011;1809;48.470;9.226;2023-02-25T01:16:44;14.90;;;8.60;;
3589;SDS011;1809;48.470;9.226;2023-02-25T01:19:18;15.53;;;10.17;;
3589;SDS011;1809;48.470;9.226;2023-02-25T01:21:48;20.53;;;9.20;;
3589;SDS011;1809;48.470;9.226;2023-02-25T01:24:17;18.70;;;9.57;;
3589;SDS011;1809;48.470;9.226;2023-02-25T01:26:48;15.90;;;8.93;;
3589;SDS011;1809;48.470;9.226;2023-02-25T01:29:16;19.17;;;10.77;;
3589;SDS011;1809;48.470;9.226;2023-02-25T01:31:44;16.53;;;9.53;;
3589;SDS011;1809;48.470;9.226;2023-02-25T01:34:15;17.60;;;9.60;;
3589;SDS011;1809;48.470;9.226;2023-02-25T01:36:41;19.10;;;9.80;;
3589;SDS011;1809;48.470;9.226;2023-02-25T01:39:07;19.87;;;9.67;;
3589;SDS011;1809;48.470;9.226;2023-02-25T01:41:33;19.87;;;9.63;;
3589;SDS011;1809;48.470;9.226;2023-02-25T01:46:28;15.77;;;8.33;;
3589;SDS011;1809;48.470;9.226;2023-02-25T01:48:54;18.47;;;9.50;;
3589;SDS011;1809;48.470;9.226;2023-02-25T01:51:21;17.47;;;8.37;;
3589;SDS011;1809;48.470;9.226;2023-02-25T01:53:49;18.60;;;11.00;;
3589;SDS011;1809;48.470;9.226;2023-02-25T01:56:16;23.50;;;11.47;;
3589;SDS011;1809;48.470;9.226;2023-02-25T01:58:44;24.70;;;11.63;;
3589;SDS011;1809;48.470;9.226;2023-02-25T02:01:13;22.07;;;11.13;;
3589;SDS011;1809;48.470;9.226;2023-02-25T02:03:43;20.93;;;10.63;;
3589;SDS011;1809;48.470;9.226;2023-02-25T02:06:15;18.23;;;10.67;;
3589;SDS011;1809;48.470;9.226;2023-02-25T02:08:54;21.40;;;11.83;;
3589;SDS011;1809;48.470;9.226;2023-02-25T02:11:20;25.53;;;11.83;;
3589;SDS011;1809;48.470;9.226;2023-02-25T02:13:47;22.73;;;11.03;;
3589;SDS011;1809;48.470;9.226;2023-02-25T02:16:39;18.10;;;10.50;;
3589;SDS011;1809;48.470;9.226;2023-02-25T02:19:25;26.63;;;10.93;;
3589;SDS011;1809;48.470;9.226;2023-02-25T02:22:03;20.40;;;10.30;;
3589;SDS011;1809;48.470;9.226;2023-02-25T02:27:25;17.97;;;8.73;;
3589;SDS011;1809;48.470;9.226;2023-02-25T02:33:03;14.30;;;8.27;;
3589;SDS011;1809;48.470;9.226;2023-02-25T02:35:48;17.37;;;8.17;;
3589;SDS011;1809;48.470;9.226;2023-02-25T02:41:34;17.70;;;9.10;;
3589;SDS011;1809;48.470;9.226;2023-02-25T02:47:20;16.93;;;8.67;;
3589;SDS011;1809;48.470;9.226;2023-02-25T02:49:53;20.53;;;9.47;;
3589;SDS011;1809;48.470;9.226;2023-02-25T02:52:28;14.77;;;8.33;;
3589;SDS011;1809;48.470;9.226;2023-02-25T02:54:58;18.50;;;9.27;;
3589;SDS011;1809;48.470;9.226;2023-02-25T02:57:29;19.47;;;9.80;;
3589;SDS011;1809;48.470;9.226;2023-02-25T02:59:59;16.20;;;8.80;;
3589;SDS011;1809;48.470;9.226;2023-02-25T03:02:51;18.50;;;9.90;;
3589;SDS011;1809;48.470;9.226;2023-02-25T03:05:22;19.70;;;8.97;;
3589;SDS011;1809;48.470;9.226;2023-02-25T03:07:54;19.23;;;9.60;;
3589;SDS011;1809;48.470;9.226;2023-02-25T03:10:25;19.63;;;9.60;;
3589;SDS011;1809;48.470;9.226;2023-02-25T03:12:50;20.13;;;10.40;;
3589;SDS011;1809;48.470;9.226;2023-02-25T03:15:16;19.43;;;8.53;;
3589;SDS011;1809;48.470;9.226;2023-02-25T03:17:43;25.03;;;10.47;;
3589;SDS011;1809;48.470;9.226;2023-02-25T03:20:22;18.47;;;11.07;;
3589;SDS011;1809;48.470;9.226;2023-02-25T03:22:52;23.63;;;9.90;;
3589;SDS011;1809;48.470;9.226;2023-02-25T03:27:45;24.77;;;10.30;;
3589;SDS011;1809;48.470;9.226;2023-02-25T03:30:30;17.47;;;9.47;;
3589;SDS011;1809;48.470;9.226;2023-02-25T03:33:04;30.67;;;11.00;;
3589;SDS011;1809;48.470;9.226;2023-02-25T03:35:57;28.67;;;10.70;;
3589;SDS011;1809;48.470;9.226;2023-02-25T03:38:26;25.10;;;9.73;;
3589;SDS011;1809;48.470;9.226;2023-02-25T03:40:55;17.33;;;9.87;;
3589;SDS011;1809;48.470;9.226;2023-02-25T03:43:32;17.00;;;9.80;;
3589;SDS011;1809;48.470;9.226;2023-02-25T03:46:02;17.90;;;10.03;;
3589;SDS011;1809;48.470;9.226;2023-02-25T03:48:29;21.13;;;10.30;;
3589;SDS011;1809;48.470;9.226;2023-02-25T03:51:00;22.17;;;10.30;;
3589;SDS011;1809;48.470;9.226;2023-02-25T03:53:27;20.17;;;11.30;;
3589;SDS011;1809;48.470;9.226;2023-02-25T03:55:54;24.80;;;11.00;;
3589;SDS011;1809;48.470;9.226;2023-02-25T03:58:21;22.47;;;11.77;;
3589;SDS011;1809;48.470;9.226;2023-02-25T04:00:49;25.53;;;11.43;;
3589;SDS011;1809;48.470;9.226;2023-02-25T04:03:20;24.80;;;12.10;;
3589;SDS011;1809;48.470;9.226;2023-02-25T04:05:45;24.93;;;11.60;;
3589;SDS011;1809;48.470;9.226;2023-02-25T04:08:10;18.20;;;10.77;;
3589;SDS011;1809;48.470;9.226;2023-02-25T04:10:43;21.30;;;11.03;;
3589;SDS011;1809;48.470;9.226;2023-02-25T04:13:10;20.10;;;8.93;;
3589;SDS011;1809;48.470;9.226;2023-02-25T04:15:38;20.33;;;10.20;;
3589;SDS011;1809;48.470;9.226;2023-02-25T04:18:03;27.40;;;10.50;;
3589;SDS011;1809;48.470;9.226;2023-02-25T04:20:29;25.77;;;10.60;;
3589;SDS011;1809;48.470;9.226;2023-02-25T04:22:54;19.07;;;8.63;;
3589;SDS011;1809;48.470;9.226;2023-02-25T04:25:20;16.70;;;9.47;;
3589;SDS011;1809;48.470;9.226;2023-02-25T04:27:46;15.83;;;8.30;;
3589;SDS011;1809;48.470;9.226;2023-02-25T04:30:11;14.53;;;7.70;;
3589;SDS011;1809;48.470;9.226;2023-02-25T04:32:38;15.77;;;7.90;;
3589;SDS011;1809;48.470;9.226;2023-02-25T04:35:03;13.97;;;7.13;;
3589;SDS011;1809;48.470;9.226;2023-02-25T04:37:30;17.40;;;6.87;;
3589;SDS011;1809;48.470;9.226;2023-02-25T04:39:55;14.20;;;7.10;;
3589;SDS011;1809;48.470;9.226;2023-02-25T04:42:21;19.10;;;6.97;;
3589;SDS011;1809;48.470;9.226;2023-02-25T04:44:46;14.83;;;7.10;;
3589;SDS011;1809;48.470;9.226;2023-02-25T04:47:12;23.93;;;9.10;;
3589;SDS011;1809;48.470;9.226;2023-02-25T04:49:37;18.10;;;7.53;;
3589;SDS011;1809;48.470;9.226;2023-02-25T04:52:09;16.93;;;7.27;;
3589;SDS011;1809;48.470;9.226;2023-02-25T04:54:38;11.27;;;6.13;;
3589;SDS011;1809;48.470;9.226;2023-02-25T04:57:04;13.33;;;6.70;;
3589;SDS011;1809;48.470;9.226;2023-02-25T04:59:30;21.30;;;7.90;;
3589;SDS011;1809;48.470;9.226;2023-02-25T05:01:55;11.83;;;6.83;;
3589;SDS011;1809;48.470;9.226;2023-02-25T05:04:20;12.50;;;6.83;;
3589;SDS011;1809;48.470;9.226;2023-02-25T05:06:46;21.03;;;8.17;;
3589;SDS011;1809;48.470;9.226;2023-02-25T05:09:11;16.17;;;7.43;;
3589;SDS011;1809;48.470;9.226;2023-02-25T05:11:36;19.30;;;8.53;;
3589;SDS011;1809;48.470;9.226;2023-02-25T05:14:02;18.23;;;7.70;;
3589;SDS011;1809;48.470;9.226;2023-02-25T05:16:27;17.80;;;8.30;;
3589;SDS011;1809;48.470;9.226;2023-02-25T05:18:52;20.33;;;8.30;;
3589;SDS011;1809;48.470;9.226;2023-02-25T05:21:19;21.43;;;8.07;;
3589;SDS011;1809;48.470;9.226;2023-02-25T05:23:49;15.83;;;7.50;;
3589;SDS011;1809;48.470;9.226;2023-02-25T05:26:17;14.30;;;7.00;;
3589;SDS011;1809;48.470;9.226;2023-02-25T05:28:54;11.47;;;6.50;;
3589;SDS011;1809;48.470;9.226;2023-02-25T05:31:21;12.30;;;7.10;;
3589;SDS011;1809;48.470;9.226;2023-02-25T05:33:48;10.80;;;5.33;;
3589;SDS011;1809;48.470;9.226;2023-02-25T05:36:14;8.37;;;5.07;;
3589;SDS011;1809;48.470;9.226;2023-02-25T05:38:40;15.37;;;4.30;;
3589;SDS011;1809;48.470;9.226;2023-02-25T05:41:07;6.60;;;3.50;;
3589;SDS011;1809;48.470;9.226;2023-02-25T05:43:34;7.60;;;2.23;;
3589;SDS011;1809;48.470;9.226;2023-02-25T05:46:00;5.30;;;2.60;;
3589;SDS011;1809;48.470;9.226;2023-02-25T05:48:27;4.00;;;3.13;;
3589;SDS011;1809;48.470;9.226;2023-02-25T05:51:04;7.10;;;2.00;;
3589;SDS011;1809;48.470;9.226;2023-02-25T05:53:31;5.47;;;2.57;;
3589;SDS011;1809;48.470;9.226;2023-02-25T05:55:57;6.43;;;3.20;;
3589;SDS011;1809;48.470;9.226;2023-02-25T05:58:23;3.33;;;2.40;;
3589;SDS011;1809;48.470;9.226;2023-02-25T06:00:48;11.43;;;2.20;;
3589;SDS011;1809;48.470;9.226;2023-02-25T06:03:14;3.80;;;1.60;;
3589;SDS011;1809;48.470;9.226;2023-02-25T06:05:40;6.90;;;2.03;;
3589;SDS011;1809;48.470;9.226;2023-02-25T06:08:07;7.13;;;3.10;;
3589;SDS011;1809;48.470;9.226;2023-02-25T06:10:33;5.80;;;2.73;;
3589;SDS011;1809;48.470;9.226;2023-02-25T06:13:03;11.83;;;3.37;;
3589;SDS011;1809;48.470;9.226;2023-02-25T06:15:29;6.80;;;3.13;;
3589;SDS011;1809;48.470;9.226;2023-02-25T06:17:54;8.83;;;3.30;;
3589;SDS011;1809;48.470;9.226;2023-02-25T06:20:19;4.77;;;3.50;;
3589;SDS011;1809;48.470;9.226;2023-02-25T06:22:45;5.00;;;3.40;;
3589;SDS011;1809;48.470;9.226;2023-02-25T06:25:10;11.47;;;3.20;;
3589;SDS011;1809;48.470;9.226;2023-02-25T06:27:35;6.43;;;2.87;;
3589;SDS011;1809;48.470;9.226;2023-02-25T06:30:01;7.23;;;3.67;;
3589;SDS011;1809;48.470;9.226;2023-02-25T06:32:27;5.53;;;3.00;;
3589;SDS011;1809;48.470;9.226;2023-02-25T06:34:52;5.17;;;3.50;;
3589;SDS011;1809;48.470;9.226;2023-02-25T06:37:17;12.00;;;5.37;;
3589;SDS011;1809;48.470;9.226;2023-02-25T06:39:43;11.60;;;3.80;;
3589;SDS011;1809;48.470;9.226;2023-02-25T06:42:09;5.87;;;3.50;;
3589;SDS011;1809;48.470;9.226;2023-02-25T06:44:34;8.40;;;3.70;;
3589;SDS011;1809;48.470;9.226;2023-02-25T06:47:00;3.90;;;3.43;;
3589;SDS011;1809;48.470;9.226;2023-02-25T06:49:25;2.97;;;2.47;;
3589;SDS011;1809;48.470;9.226;2023-02-25T06:51:50;4.27;;;2.83;;
3589;SDS011;1809;48.470;9.226;2023-02-25T06:54:16;11.67;;;3.77;;
3589;SDS011;1809;48.470;9.226;2023-02-25T06:56:42;3.07;;;2.70;;
3589;SDS011;1809;48.470;9.226;2023-02-25T06:59:07;5.03;;;2.87;;
3589;SDS011;1809;48.470;9.226;2023-02-25T07:01:32;7.93;;;2.70;;
3589;SDS011;1809;48.470;9.226;2023-02-25T07:03:58;7.87;;;2.83;;
3589;SDS011;1809;48.470;9.226;2023-02-25T07:06:23;2.93;;;2.67;;
3589;SDS011;1809;48.470;9.226;2023-02-25T07:08:49;6.80;;;2.40;;
3589;SDS011;1809;48.470;9.226;2023-02-25T07:13:43;5.70;;;3.43;;
3589;SDS011;1809;48.470;9.226;2023-02-25T07:16:11;9.93;;;4.10;;
3589;SDS011;1809;48.470;9.226;2023-02-25T07:18:37;4.83;;;3.10;;
3589;SDS011;1809;48.470;9.226;2023-02-25T07:21:03;11.93;;;3.37;;
3589;SDS011;1809;48.470;9.226;2023-02-25T07:23:29;6.70;;;3.13;;
3589;SDS011;1809;48.470;9.226;2023-02-25T07:25:54;7.80;;;3.70;;
3589;SDS011;1809;48.470;9.226;2023-02-25T07:28:19;5.40;;;2.87;;
3589;SDS011;1809;48.470;9.226;2023-02-25T07:30:44;6.13;;;3.40;;
3589;SDS011;1809;48.470;9.226;2023-02-25T07:33:10;10.23;;;3.73;;
3589;SDS011;1809;48.470;9.226;2023-02-25T07:35:35;3.63;;;3.23;;
3589;SDS011;1809;48.470;9.226;2023-02-25T07:38:00;6.90;;;3.80;;
3589;SDS011;1809;48.470;9.226;2023-02-25T07:40:26;3.37;;;2.27;;
3589;SDS011;1809;48.470;9.226;2023-02-25T07:42:51;4.93;;;2.87;;
3589;SDS011;1809;48.470;9.226;2023-02-25T07:45:16;6.30;;;2.10;;
3589;SDS011;1809;48.470;9.226;2023-02-25T07:47:42;8.50;;;2.10;;
3589;SDS011;1809;48.470;9.226;2023-02-25T07:50:07;3.43;;;2.57;;
3589;SDS011;1809;48.470;9.226;2023-02-25T07:52:34;3.33;;;1.80;;
3589;SDS011;1809;48.470;9.226;2023-02-25T07:55:00;1.77;;;1.53;;
3589;SDS011;1809;48.470;9.226;2023-02-25T07:57:27;8.13;;;1.83;;
3589;SDS011;1809;48.470;9.226;2023-02-25T07:59:53;3.50;;;2.30;;
3589;SDS011;1809;48.470;9.226;2023-02-25T08:02:18;6.80;;;1.83;;
3589;SDS011;1809;48.470;9.226;2023-02-25T08:04:45;7.37;;;2.33;;
3589;SDS011;1809;48.470;9.226;2023-02-25T08:07:10;8.70;;;1.97;;
3589;SDS011;1809;48.470;9.226;2023-02-25T08:09:36;2.33;;;1.90;;
3589;SDS011;1809;48.470;9.226;2023-02-25T08:12:01;6.03;;;3.00;;
3589;SDS011;1809;48.470;9.226;2023-02-25T08:14:26;3.73;;;2.20;;
3589;SDS011;1809;48.470;9.226;2023-02-25T08:16:54;3.30;;;2.27;;
3589;SDS011;1809;48.470;9.226;2023-02-25T08:19:20;6.80;;;1.70;;
3589;SDS011;1809;48.470;9.226;2023-02-25T08:21:46;4.50;;;2.10;;
3589;SDS011;1809;48.470;9.226;2023-02-25T08:24:11;3.43;;;1.40;;
3589;SDS011;1809;48.470;9.226;2023-02-25T08:26:37;4.27;;;2.30;;
3589;SDS011;1809;48.470;9.226;2023-02-25T08:29:02;2.77;;;2.10;;
3589;SDS011;1809;48.470;9.226;2023-02-25T08:31:28;7.67;;;2.30;;
3589;SDS011;1809;48.470;9.226;2023-02-25T08:33:54;4.20;;;1.37;;
3589;SDS011;1809;48.470;9.226;2023-02-25T08:36:22;3.67;;;1.77;;
3589;SDS011;1809;48.470;9.226;2023-02-25T08:38:50;1.50;;;1.40;;
3589;SDS011;1809;48.470;9.226;2023-02-25T08:41:17;4.00;;;1.60;;
3589;SDS011;1809;48.470;9.226;2023-02-25T08:43:47;2.30;;;1.33;;
3589;SDS011;1809;48.470;9.226;2023-02-25T08:46:15;4.37;;;2.47;;
3589;SDS011;1809;48.470;9.226;2023-02-25T08:48:41;2.50;;;1.30;;
3589;SDS011;1809;48.470;9.226;2023-02-25T08:51:07;5.87;;;1.67;;
3589;SDS011;1809;48.470;9.226;2023-02-25T08:53:34;4.97;;;1.30;;
3589;SDS011;1809;48.470;9.226;2023-02-25T08:56:02;3.60;;;1.40;;
3589;SDS011;1809;48.470;9.226;2023-02-25T08:58:31;6.87;;;2.00;;
3589;SDS011;1809;48.470;9.226;2023-02-25T09:00:58;2.60;;;1.43;;
3589;SDS011;1809;48.470;9.226;2023-02-25T09:03:23;4.30;;;2.93;;
3589;SDS011;1809;48.470;9.226;2023-02-25T09:05:50;6.50;;;3.43;;
3589;SDS011;1809;48.470;9.226;2023-02-25T09:08:16;11.80;;;4.47;;
3589;SDS011;1809;48.470;9.226;2023-02-25T09:10:41;1.67;;;1.10;;
3589;SDS011;1809;48.470;9.226;2023-02-25T09:13:07;7.67;;;1.87;;
3589;SDS011;1809;48.470;9.226;2023-02-25T09:15:32;6.43;;;2.30;;
3589;SDS011;1809;48.470;9.226;2023-02-25T09:17:57;7.13;;;2.87;;
3589;SDS011;1809;48.470;9.226;2023-02-25T09:20:23;3.93;;;1.57;;
3589;SDS011;1809;48.470;9.226;2023-02-25T09:22:49;3.90;;;1.30;;
3589;SDS011;1809;48.470;9.226;2023-02-25T09:25:15;3.97;;;2.83;;
3589;SDS011;1809;48.470;9.226;2023-02-25T09:27:40;1.40;;;1.30;;
3589;SDS011;1809;48.470;9.226;2023-02-25T09:30:06;7.93;;;1.27;;
3589;SDS011;1809;48.470;9.226;2023-02-25T09:32:32;4.63;;;1.23;;
3589;SDS011;1809;48.470;9.226;2023-02-25T09:34:57;3.23;;;1.87;;
3589;SDS011;1809;48.470;9.226;2023-02-25T09:37:24;4.63;;;1.23;;
3589;SDS011;1809;48.470;9.226;2023-02-25T09:39:50;1.80;;;1.30;;
3589;SDS011;1809;48.470;9.226;2023-02-25T09:42:17;2.97;;;1.93;;
3589;SDS011;1809;48.470;9.226;2023-02-25T09:44:49;8.27;;;1.30;;
3589;SDS011;1809;48.470;9.226;2023-02-25T09:47:18;2.77;;;1.50;;
3589;SDS011;1809;48.470;9.226;2023-02-25T09:52:22;1.90;;;1.50;;
3589;SDS011;1809;48.470;9.226;2023-02-25T09:55:36;1.27;;;0.97;;
3589;SDS011;1809;48.470;9.226;2023-02-25T10:00:36;1.07;;;1.00;;
3589;SDS011;1809;48.470;9.226;2023-02-25T10:03:14;1.67;;;0.90;;
3589;SDS011;1809;48.470;9.226;2023-02-25T10:06:11;3.17;;;1.07;;
3589;SDS011;1809;48.470;9.226;2023-02-25T10:14:14;4.43;;;1.10;;
3589;SDS011;1809;48.470;9.226;2023-02-25T10:20:04;2.07;;;1.00;;
3589;SDS011;1809;48.470;9.226;2023-02-25T10:25:28;4.67;;;1.30;;
3589;SDS011;1809;48.470;9.226;2023-02-25T10:28:00;2.37;;;1.97;;
3589;SDS011;1809;48.470;9.226;2023-02-25T10:33:03;4.60;;;2.97;;
3589;SDS011;1809;48.470;9.226;2023-02-25T10:35:38;5.03;;;2.50;;
3589;SDS011;1809;48.470;9.226;2023-02-25T10:38:05;1.87;;;1.50;;
3589;SDS011;1809;48.470;9.226;2023-02-25T10:40:33;4.23;;;1.53;;
3589;SDS011;1809;48.470;9.226;2023-02-25T10:42:59;1.60;;;1.43;;
3589;SDS011;1809;48.470;9.226;2023-02-25T10:45:34;3.77;;;1.80;;
3589;SDS011;1809;48.470;9.226;2023-02-25T10:48:11;0.97;;;0.97;;
3589;SDS011;1809;48.470;9.226;2023-02-25T10:50:41;3.03;;;1.87;;
3589;SDS011;1809;48.470;9.226;2023-02-25T10:53:14;3.07;;;1.50;;
3589;SDS011;1809;48.470;9.226;2023-02-25T10:55:48;1.73;;;1.57;;
3589;SDS011;1809;48.470;9.226;2023-02-25T11:01:19;1.13;;;1.00;;
3589;SDS011;1809;48.470;9.226;2023-02-25T11:03:53;4.27;;;1.90;;
3589;SDS011;1809;48.470;9.226;2023-02-25T11:06:29;0.87;;;0.87;;
3589;SDS011;1809;48.470;9.226;2023-02-25T11:08:59;1.50;;;0.90;;
3589;SDS011;1809;48.470;9.226;2023-02-25T11:11:30;6.20;;;1.67;;
3589;SDS011;1809;48.470;9.226;2023-02-25T11:16:24;2.27;;;1.30;;
3589;SDS011;1809;48.470;9.226;2023-02-25T11:18:54;4.00;;;1.30;;
3589;SDS011;1809;48.470;9.226;2023-02-25T11:21:32;1.67;;;1.53;;
3589;SDS011;1809;48.470;9.226;2023-02-25T11:24:01;8.50;;;4.47;;
3589;SDS011;1809;48.470;9.226;2023-02-25T11:26:33;5.90;;;1.90;;
3589;SDS011;1809;48.470;9.226;2023-02-25T11:29:26;7.27;;;2.33;;
3589;SDS011;1809;48.470;9.226;2023-02-25T11:31:55;2.83;;;1.00;;
3589;SDS011;1809;48.470;9.226;2023-02-25T11:34:28;3.00;;;1.43;;
3589;SDS011;1809;48.470;9.226;2023-02-25T11:36:55;6.03;;;1.43;;
3589;SDS011;1809;48.470;9.226;2023-02-25T11:39:43;2.40;;;1.30;;
3589;SDS011;1809;48.470;9.226;2023-02-25T11:42:19;3.00;;;1.03;;
3589;SDS011;1809;48.470;9.226;2023-02-25T11:44:48;3.07;;;1.57;;
3589;SDS011;1809;48.470;9.226;2023-02-25T11:47:26;2.23;;;1.43;;
3589;SDS011;1809;48.470;9.226;2023-02-25T11:50:16;2.03;;;1.80;;
3589;SDS011;1809;48.470;9.226;2023-02-25T11:58:07;2.80;;;1.40;;
3589;SDS011;1809;48.470;9.226;2023-02-25T12:03:38;3.03;;;1.23;;
3589;SDS011;1809;48.470;9.226;2023-02-25T12:06:10;1.30;;;1.20;;
3589;SDS011;1809;48.470;9.226;2023-02-25T12:08:55;5.83;;;1.87;;
3589;SDS011;1809;48.470;9.226;2023-02-25T12:20:05;2.73;;;0.93;;
3589;SDS011;1809;48.470;9.226;2023-02-25T12:34:41;3.43;;;1.07;;
3589;SDS011;1809;48.470;9.226;2023-02-25T12:37:39;3.30;;;1.10;;
3589;SDS011;1809;48.470;9.226;2023-02-25T12:52:32;1.10;;;1.00;;
3589;SDS011;1809;48.470;9.226;2023-02-25T12:55:24;1.00;;;0.80;;
3589;SDS011;1809;48.470;9.226;2023-02-25T13:00:31;1.80;;;0.77;;
3589;SDS011;1809;48.470;9.226;2023-02-25T13:11:37;4.43;;;1.07;;
3589;SDS011;1809;48.470;9.226;2023-02-25T13:16:56;6.50;;;1.63;;
3589;SDS011;1809;48.470;9.226;2023-02-25T13:19:53;2.50;;;1.23;;
3589;SDS011;1809;48.470;9.226;2023-02-25T13:30:53;2.17;;;1.30;;
3589;SDS011;1809;48.470;9.226;2023-02-25T13:38:54;1.80;;;1.43;;
3589;SDS011;1809;48.470;9.226;2023-02-25T13:41:35;2.47;;;0.97;;
3589;SDS011;1809;48.470;9.226;2023-02-25T13:46:52;2.23;;;1.47;;
3589;SDS011;1809;48.470;9.226;2023-02-25T13:52:48;2.23;;;1.20;;
3589;SDS011;1809;48.470;9.226;2023-02-25T13:55:23;1.10;;;1.00;;
3589;SDS011;1809;48.470;9.226;2023-02-25T13:58:29;2.20;;;1.23;;
3589;SDS011;1809;48.470;9.226;2023-02-25T14:01:18;6.17;;;1.10;;
3589;SDS011;1809;48.470;9.226;2023-02-25T14:03:52;1.70;;;1.27;;
3589;SDS011;1809;48.470;9.226;2023-02-25T14:09:34;3.53;;;1.30;;
3589;SDS011;1809;48.470;9.226;2023-02-25T14:17:42;1.23;;;1.10;;
3589;SDS011;1809;48.470;9.226;2023-02-25T14:20:23;1.63;;;1.30;;
3589;SDS011;1809;48.470;9.226;2023-02-25T14:23:15;1.43;;;1.33;;
3589;SDS011;1809;48.470;9.226;2023-02-25T14:31:45;4.50;;;1.70;;
3589;SDS011;1809;48.470;9.226;2023-02-25T14:37:14;2.23;;;1.93;;
3589;SDS011;1809;48.470;9.226;2023-02-25T14:42:54;4.50;;;2.97;;
3589;SDS011;1809;48.470;9.226;2023-02-25T14:45:38;3.70;;;2.87;;
3589;SDS011;1809;48.470;9.226;2023-02-25T14:54:06;13.30;;;5.57;;
3589;SDS011;1809;48.470;9.226;2023-02-25T14:57:00;4.30;;;3.07;;
3589;SDS011;1809;48.470;9.226;2023-02-25T15:02:30;3.23;;;2.03;;
3589;SDS011;1809;48.470;9.226;2023-02-25T15:05:27;3.40;;;1.90;;
3589;SDS011;1809;48.470;9.226;2023-02-25T15:08:09;2.80;;;1.00;;
3589;SDS011;1809;48.470;9.226;2023-02-25T15:11:03;5.07;;;1.93;;
3589;SDS011;1809;48.470;9.226;2023-02-25T15:33:52;4.40;;;2.23;;
3589;SDS011;1809;48.470;9.226;2023-02-25T15:36:20;9.33;;;3.40;;
3589;SDS011;1809;48.470;9.226;2023-02-25T15:38:51;1.93;;;1.47;;
3589;SDS011;1809;48.470;9.226;2023-02-25T15:43:50;3.50;;;2.03;;
3589;SDS011;1809;48.470;9.226;2023-02-25T15:48:43;6.73;;;4.07;;
3589;SDS011;1809;48.470;9.226;2023-02-25T15:51:42;5.03;;;2.90;;
3589;SDS011;1809;48.470;9.226;2023-02-25T15:59:45;10.40;;;3.90;;
3589;SDS011;1809;48.470;9.226;2023-02-25T16:04:57;2.07;;;1.10;;
3589;SDS011;1809;48.470;9.226;2023-02-25T16:07:40;3.97;;;1.83;;
3589;SDS011;1809;48.470;9.226;2023-02-25T16:12:42;3.77;;;1.53;;
3589;SDS011;1809;48.470;9.226;2023-02-25T16:15:12;3.17;;;2.03;;
3589;SDS011;1809;48.470;9.226;2023-02-25T16:17:45;8.33;;;3.77;;
3589;SDS011;1809;48.470;9.226;2023-02-25T16:22:46;2.10;;;1.90;;
3589;SDS011;1809;48.470;9.226;2023-02-25T16:25:18;4.40;;;3.00;;
3589;SDS011;1809;48.470;9.226;2023-02-25T16:28:03;4.27;;;1.93;;
3589;SDS011;1809;48.470;9.226;2023-02-25T16:30:47;2.50;;;2.17;;
3589;SDS011;1809;48.470;9.226;2023-02-25T16:33:37;2.13;;;1.90;;
3589;SDS011;1809;48.470;9.226;2023-02-25T16:36:24;6.70;;;2.50;;
3589;SDS011;1809;48.470;9.226;2023-02-25T16:39:00;2.33;;;1.40;;
3589;SDS011;1809;48.470;9.226;2023-02-25T16:41:29;2.40;;;2.23;;
3589;SDS011;1809;48.470;9.226;2023-02-25T16:43:55;3.77;;;1.83;;
3589;SDS011;1809;48.470;9.226;2023-02-25T16:46:26;4.73;;;1.40;;
3589;SDS011;1809;48.470;9.226;2023-02-25T16:48:58;3.37;;;1.10;;
3589;SDS011;1809;48.470;9.226;2023-02-25T16:51:30;2.10;;;1.30;;
3589;SDS011;1809;48.470;9.226;2023-02-25T16:54:15;16.20;;;2.27;;
3589;SDS011;1809;48.470;9.226;2023-02-25T16:56:44;7.60;;;3.43;;
3589;SDS011;1809;48.470;9.226;2023-02-25T17:01:37;9.33;;;1.63;;
3589;SDS011;1809;48.470;9.226;2023-02-25T17:04:19;1.50;;;1.40;;
3589;SDS011;1809;48.470;9.226;2023-02-25T17:09:48;4.17;;;1.80;;
3589;SDS011;1809;48.470;9.226;2023-02-25T17:12:19;11.83;;;4.07;;
3589;SDS011;1809;48.470;9.226;2023-02-25T17:14:55;4.57;;;2.87;;
3589;SDS011;1809;48.470;9.226;2023-02-25T17:17:27;7.40;;;1.60;;
3589;SDS011;1809;48.470;9.226;2023-02-25T17:19:57;5.77;;;2.20;;
3589;SDS011;1809;48.470;9.226;2023-02-25T17:22:24;5.50;;;2.63;;
3589;SDS011;1809;48.470;9.226;2023-02-25T17:24:51;9.63;;;5.07;;
3589;SDS011;1809;48.470;9.226;2023-02-25T17:27:19;5.83;;;2.00;;
3589;SDS011;1809;48.470;9.226;2023-02-25T17:29:47;9.83;;;4.07;;
3589;SDS011;1809;48.470;9.226;2023-02-25T17:32:23;5.33;;;2.87;;
3589;SDS011;1809;48.470;9.226;2023-02-25T17:34:51;6.10;;;2.73;;
3589;SDS011;1809;48.470;9.226;2023-02-25T17:37:19;3.37;;;2.53;;
3589;SDS011;1809;48.470;9.226;2023-02-25T17:39:45;5.43;;;2.73;;
3589;SDS011;1809;48.470;9.226;2023-02-25T17:44:57;4.53;;;3.40;;
3589;SDS011;1809;48.470;9.226;2023-02-25T17:47:29;8.63;;;3.87;;
3589;SDS011;1809;48.470;9.226;2023-02-25T17:49:57;8.30;;;3.63;;
3589;SDS011;1809;48.470;9.226;2023-02-25T17:52:29;4.13;;;2.57;;
3589;SDS011;1809;48.470;9.226;2023-02-25T17:54:58;9.80;;;5.37;;
3589;SDS011;1809;48.470;9.226;2023-02-25T17:57:26;33.67;;;15.77;;
3589;SDS011;1809;48.470;9.226;2023-02-25T17:59:58;7.13;;;3.27;;
3589;SDS011;1809;48.470;9.226;2023-02-25T18:02:37;4.63;;;2.40;;
3589;SDS011;1809;48.470;9.226;2023-02-25T18:05:25;9.33;;;3.70;;
3589;SDS011;1809;48.470;9.226;2023-02-25T18:10:41;7.63;;;4.10;;
3589;SDS011;1809;48.470;9.226;2023-02-25T18:13:13;7.87;;;5.60;;
3589;SDS011;1809;48.470;9.226;2023-02-25T18:15:43;17.43;;;5.87;;
3589;SDS011;1809;48.470;9.226;2023-02-25T18:18:15;10.03;;;4.97;;
3589;SDS011;1809;48.470;9.226;2023-02-25T18:20:44;9.33;;;4.00;;
3589;SDS011;1809;48.470;9.226;2023-02-25T18:23:18;9.47;;;4.10;;
3589;SDS011;1809;48.470;9.226;2023-02-25T18:25:48;11.43;;;6.83;;
3589;SDS011;1809;48.470;9.226;2023-02-25T18:28:33;7.77;;;4.73;;
3589;SDS011;1809;48.470;9.226;2023-02-25T18:30:58;10.23;;;5.43;;
3589;SDS011;1809;48.470;9.226;2023-02-25T18:33:24;4.17;;;2.93;;
3589;SDS011;1809;48.470;9.226;2023-02-25T18:35:49;3.20;;;1.90;;
3589;SDS011;1809;48.470;9.226;2023-02-25T18:38:19;1.60;;;1.40;;
3589;SDS011;1809;48.470;9.226;2023-02-25T18:40:46;1.33;;;1.23;;
3589;SDS011;1809;48.470;9.226;2023-02-25T18:43:16;1.23;;;1.13;;
3589;SDS011;1809;48.470;9.226;2023-02-25T18:45:43;1.10;;;1.10;;